Time;durP1;ratioP1;P1;durP2;ratioP2;P2;SDS_P1;SDS_P2;PMS_P1;PMS_P2;Temp;Humidity;BMP_temperature;BMP_pressure;BME280_temperature;BME280_humidity;BME280_pressure;Samples;Min_cycle;Max_cycle;Signal;HPM_P1;HPM_P2
2023/04/08 00:00:19;;;;;;;0.40;0.40;;;6.50;99.90;;;;;;4440146;32;20058;-66
2023/04/08 00:02:45;;;;;;;1.10;0.52;;;6.50;99.90;;;;;;4440228;32;20636;-66
2023/04/08 00:05:10;;;;;;;1.30;1.20;;;6.50;99.90;;;;;;4439462;32;20077;-66
2023/04/08 00:07:36;;;;;;;2.37;0.65;;;6.40;99.90;;;;;;4425787;32;20065;-66
2023/04/08 00:10:02;;;;;;;0.85;0.57;;;6.50;99.90;;;;;;4424572;32;20061;-66
2023/04/08 00:12:28;;;;;;;0.50;0.50;;;6.50;99.90;;;;;;4440871;32;20073;-65
2023/04/08 00:14:53;;;;;;;3.17;0.80;;;6.40;99.90;;;;;;4436320;32;20069;-66
2023/04/08 00:17:19;;;;;;;0.65;0.65;;;6.40;99.90;;;;;;4440694;32;20070;-64
2023/04/08 00:19:44;;;;;;;0.98;0.98;;;6.40;99.90;;;;;;4440656;32;20139;-66
2023/04/08 00:22:10;;;;;;;0.50;0.50;;;6.40;99.90;;;;;;4440568;32;20537;-67
2023/04/08 00:24:36;;;;;;;0.85;0.85;;;6.50;99.90;;;;;;4436761;32;20089;-66
2023/04/08 00:27:01;;;;;;;0.60;0.60;;;6.50;99.90;;;;;;4423962;32;20086;-66
2023/04/08 00:29:27;;;;;;;1.75;0.60;;;6.50;99.90;;;;;;4441789;32;20069;-66
2023/04/08 00:31:53;;;;;;;1.35;0.95;;;6.50;99.90;;;;;;4425739;32;20091;-66
2023/04/08 00:34:19;;;;;;;0.68;0.68;;;6.50;99.90;;;;;;4440987;32;20388;-66
2023/04/08 00:36:45;;;;;;;3.35;0.70;;;6.50;99.90;;;;;;4439761;32;20535;-66
2023/04/08 00:39:11;;;;;;;0.65;0.62;;;6.50;99.90;;;;;;4443336;32;20102;-65
2023/04/08 00:41:36;;;;;;;0.73;0.73;;;6.60;99.90;;;;;;4439593;32;20136;-64
2023/04/08 00:44:02;;;;;;;3.87;0.65;;;6.60;99.90;;;;;;4440960;32;20114;-66
2023/04/08 00:46:27;;;;;;;0.35;0.35;;;6.60;99.90;;;;;;4438078;32;20583;-66
2023/04/08 00:48:54;;;;;;;0.60;0.60;;;6.60;99.90;;;;;;4441644;32;20081;-67
2023/04/08 00:51:20;;;;;;;0.68;0.68;;;6.70;99.90;;;;;;4446482;32;20080;-66
2023/04/08 00:53:45;;;;;;;0.52;0.52;;;6.70;99.90;;;;;;4441630;32;20905;-66
2023/04/08 00:56:11;;;;;;;1.20;1.10;;;6.70;99.90;;;;;;4422000;32;20598;-67
2023/04/08 00:58:37;;;;;;;1.08;1.08;;;6.70;99.90;;;;;;4446532;32;20058;-67
2023/04/08 01:01:09;;;;;;;0.60;0.60;;;6.60;99.90;;;;;;4446410;32;20108;-66
2023/04/08 01:03:55;;;;;;;5.78;1.25;;;6.60;99.90;;;;;;4426010;32;20080;-66
2023/04/08 01:06:37;;;;;;;1.33;0.88;;;6.70;99.90;;;;;;4438567;32;20077;-66
2023/04/08 01:09:04;;;;;;;0.60;0.60;;;6.60;99.90;;;;;;4445585;32;20073;-66
2023/04/08 01:11:33;;;;;;;0.93;0.93;;;6.60;99.90;;;;;;4445750;32;20080;-64
2023/04/08 01:14:01;;;;;;;0.93;0.73;;;6.60;99.90;;;;;;4426744;32;20108;-66
2023/04/08 01:16:27;;;;;;;1.55;1.02;;;6.50;99.90;;;;;;4440964;32;20080;-66
2023/04/08 01:18:55;;;;;;;2.05;1.00;;;6.50;99.90;;;;;;4445335;32;20129;-66
2023/04/08 01:21:22;;;;;;;2.40;1.12;;;6.50;99.90;;;;;;4424652;32;20100;-67
2023/04/08 01:24:10;;;;;;;3.80;2.15;;;6.40;99.90;;;;;;4439768;32;20072;-66
2023/04/08 01:26:37;;;;;;;1.55;1.45;;;6.40;99.90;;;;;;4420711;32;20149;-66
2023/04/08 01:29:04;;;;;;;6.72;0.93;;;6.50;99.90;;;;;;4441238;32;20085;-66
2023/04/08 01:31:30;;;;;;;0.47;0.47;;;6.50;99.90;;;;;;4443590;32;20113;-65
2023/04/08 01:33:58;;;;;;;5.22;2.33;;;6.40;99.90;;;;;;4439869;32;20812;-66
2023/04/08 01:36:25;;;;;;;0.65;0.62;;;6.50;99.90;;;;;;4438439;32;20077;-66
2023/04/08 01:38:50;;;;;;;0.60;0.60;;;6.40;99.90;;;;;;4442363;32;20054;-66
2023/04/08 01:41:17;;;;;;;0.70;0.70;;;6.40;99.90;;;;;;4438778;32;20088;-63
2023/04/08 01:43:44;;;;;;;5.90;1.50;;;6.40;99.90;;;;;;4426234;32;20101;-67
2023/04/08 01:46:11;;;;;;;0.85;0.80;;;6.50;99.90;;;;;;4438068;32;20089;-64
2023/04/08 01:48:37;;;;;;;1.90;1.23;;;6.60;99.90;;;;;;4428590;32;20077;-66
2023/04/08 01:51:04;;;;;;;2.50;1.30;;;6.60;99.90;;;;;;4440033;32;21259;-66
2023/04/08 01:53:31;;;;;;;1.37;0.93;;;6.50;99.90;;;;;;4444571;32;20069;-66
2023/04/08 01:56:03;;;;;;;2.15;1.95;;;6.50;99.90;;;;;;4421730;32;20517;-66
2023/04/08 01:58:35;;;;;;;0.73;0.73;;;6.50;99.90;;;;;;4442651;32;20884;-66
2023/04/08 02:01:02;;;;;;;1.15;1.10;;;6.50;99.90;;;;;;4440838;32;20105;-66
2023/04/08 02:03:30;;;;;;;1.10;0.95;;;6.50;99.90;;;;;;4446068;32;20453;-66
2023/04/08 02:05:55;;;;;;;1.37;0.95;;;6.50;99.90;;;;;;4440989;32;20073;-66
2023/04/08 02:08:21;;;;;;;0.95;0.82;;;6.50;99.90;;;;;;4443103;32;20056;-66
2023/04/08 02:10:46;;;;;;;1.87;1.10;;;6.50;99.90;;;;;;4440018;32;20116;-64
2023/04/08 02:13:12;;;;;;;1.00;0.98;;;6.60;99.90;;;;;;4445402;32;20082;-66
2023/04/08 02:15:42;;;;;;;5.85;2.12;;;6.50;99.90;;;;;;4442777;32;20143;-66
2023/04/08 02:18:15;;;;;;;0.67;0.67;;;6.60;99.90;;;;;;4427277;32;20077;-66
2023/04/08 02:20:45;;;;;;;4.97;2.65;;;6.50;99.90;;;;;;4426623;32;20061;-67
2023/04/08 02:23:20;;;;;;;0.90;0.90;;;6.50;99.90;;;;;;4426890;32;20128;-66
2023/04/08 02:25:47;;;;;;;2.28;1.02;;;6.40;99.90;;;;;;4423702;32;20146;-66
2023/04/08 02:28:15;;;;;;;6.15;1.40;;;6.40;99.90;;;;;;4425159;32;20102;-66
2023/04/08 02:30:43;;;;;;;2.00;0.65;;;6.50;99.90;;;;;;4442470;32;20052;-66
2023/04/08 02:33:10;;;;;;;6.07;0.82;;;6.40;99.90;;;;;;4426063;32;20050;-65
2023/04/08 02:35:39;;;;;;;2.33;1.45;;;6.40;99.90;;;;;;4440559;32;20082;-67
2023/04/08 02:38:04;;;;;;;0.77;0.77;;;6.50;99.90;;;;;;4440942;32;20092;-64
2023/04/08 02:40:31;;;;;;;1.08;0.98;;;6.40;99.90;;;;;;4444264;32;20056;-66
2023/04/08 02:42:58;;;;;;;1.75;1.23;;;6.40;99.90;;;;;;4442070;32;20049;-66
2023/04/08 02:45:30;;;;;;;0.75;0.75;;;6.50;99.90;;;;;;4424001;32;20066;-65
2023/04/08 02:47:56;;;;;;;0.70;0.70;;;6.50;99.90;;;;;;4440325;32;20114;-66
2023/04/08 02:50:21;;;;;;;0.98;0.98;;;6.50;99.90;;;;;;4441663;32;20595;-65
2023/04/08 02:52:47;;;;;;;7.35;1.37;;;6.40;99.90;;;;;;4440385;32;20070;-66
2023/04/08 02:55:12;;;;;;;3.15;1.67;;;6.40;99.90;;;;;;4441186;32;20611;-65
2023/04/08 02:57:39;;;;;;;7.07;1.12;;;6.40;99.90;;;;;;4438381;32;20077;-65
2023/04/08 03:00:06;;;;;;;7.50;1.50;;;6.40;99.90;;;;;;4428286;32;20085;-66
2023/04/08 03:02:32;;;;;;;0.45;0.45;;;6.40;99.90;;;;;;4424017;32;20074;-66
2023/04/08 03:04:57;;;;;;;2.05;1.27;;;6.30;99.90;;;;;;4440600;32;20414;-64
2023/04/08 03:07:23;;;;;;;2.67;1.25;;;6.40;99.90;;;;;;4443075;32;20157;-65
2023/04/08 03:09:48;;;;;;;4.82;1.20;;;6.30;99.90;;;;;;4436889;32;20078;-68
2023/04/08 03:12:13;;;;;;;0.80;0.80;;;6.30;99.90;;;;;;4441594;32;20584;-65
2023/04/08 03:14:39;;;;;;;0.40;0.40;;;6.40;99.90;;;;;;4441632;32;20061;-65
2023/04/08 03:17:04;;;;;;;1.92;0.90;;;6.40;99.90;;;;;;4442973;32;20167;-66
2023/04/08 03:19:30;;;;;;;4.72;1.90;;;6.30;99.90;;;;;;4440703;32;20104;-66
2023/04/08 03:21:55;;;;;;;0.90;0.90;;;6.40;99.90;;;;;;4438794;32;20114;-66
2023/04/08 03:24:21;;;;;;;2.28;1.60;;;6.40;99.90;;;;;;4440827;32;20077;-66
2023/04/08 03:26:46;;;;;;;14.23;3.00;;;6.40;99.90;;;;;;4438374;32;20116;-66
2023/04/08 03:29:12;;;;;;;2.33;1.25;;;6.40;99.90;;;;;;4441266;32;20071;-65
2023/04/08 03:31:37;;;;;;;0.70;0.70;;;6.40;99.90;;;;;;4442198;32;20073;-64
2023/04/08 03:34:03;;;;;;;0.80;0.80;;;6.40;99.90;;;;;;4440554;32;20112;-65
2023/04/08 03:36:28;;;;;;;1.02;0.88;;;6.40;99.90;;;;;;4439166;32;20077;-65
2023/04/08 03:38:54;;;;;;;1.58;0.93;;;6.40;99.90;;;;;;4443430;32;20068;-64
2023/04/08 03:41:19;;;;;;;7.37;2.60;;;6.50;99.90;;;;;;4437449;32;20076;-66
2023/04/08 03:43:45;;;;;;;4.57;1.12;;;6.40;99.90;;;;;;4442651;32;20093;-63
2023/04/08 03:46:11;;;;;;;3.17;2.28;;;6.40;99.90;;;;;;4419953;32;20074;-65
2023/04/08 03:48:36;;;;;;;4.28;1.73;;;6.40;99.90;;;;;;4441111;32;20453;-65
2023/04/08 03:51:02;;;;;;;0.60;0.60;;;6.50;99.90;;;;;;4441553;32;20442;-65
2023/04/08 03:53:28;;;;;;;1.48;1.33;;;6.40;99.90;;;;;;4441870;32;20073;-65
2023/04/08 03:55:54;;;;;;;2.17;1.37;;;6.50;99.90;;;;;;4434876;32;20060;-66
2023/04/08 03:58:20;;;;;;;7.00;1.58;;;6.50;99.90;;;;;;4422960;32;20085;-65
2023/04/08 04:00:45;;;;;;;4.37;1.58;;;6.50;99.90;;;;;;4423683;32;20809;-66
2023/04/08 04:03:11;;;;;;;7.28;1.92;;;6.40;99.90;;;;;;4439009;32;20082;-67
2023/04/08 04:05:38;;;;;;;1.62;1.48;;;6.50;99.90;;;;;;4436668;32;20061;-65
2023/04/08 04:08:04;;;;;;;6.43;1.42;;;6.40;99.90;;;;;;4440773;32;20081;-67
2023/04/08 04:10:29;;;;;;;2.60;1.58;;;6.40;99.90;;;;;;4438056;32;20658;-64
2023/04/08 04:12:55;;;;;;;4.10;1.98;;;6.40;99.90;;;;;;4437658;32;20101;-66
2023/04/08 04:15:20;;;;;;;3.15;1.73;;;6.40;99.90;;;;;;4440526;32;20065;-66
2023/04/08 04:17:49;;;;;;;1.87;1.40;;;6.40;99.90;;;;;;4441042;32;20390;-67
2023/04/08 04:20:14;;;;;;;1.87;1.50;;;6.40;99.90;;;;;;4424084;32;20082;-65
2023/04/08 04:22:40;;;;;;;1.08;1.02;;;6.40;99.90;;;;;;4422241;32;20082;-66
2023/04/08 04:25:06;;;;;;;4.70;1.58;;;6.50;99.90;;;;;;4439937;32;20060;-67
2023/04/08 04:27:31;;;;;;;1.55;1.05;;;6.50;99.90;;;;;;4438876;32;20559;-67
2023/04/08 04:29:57;;;;;;;3.40;0.88;;;6.50;99.90;;;;;;4445131;32;20062;-65
2023/04/08 04:32:22;;;;;;;3.72;1.52;;;6.50;99.90;;;;;;4446079;32;20056;-64
2023/04/08 04:34:47;;;;;;;1.37;1.10;;;6.50;99.90;;;;;;4438307;32;20050;-66
2023/04/08 04:37:13;;;;;;;1.37;1.27;;;6.50;99.90;;;;;;4447610;32;20536;-66
2023/04/08 04:39:38;;;;;;;2.50;1.52;;;6.50;99.90;;;;;;4445540;32;20074;-66
2023/04/08 04:42:04;;;;;;;4.40;2.05;;;6.50;99.90;;;;;;4439449;32;20065;-64
2023/04/08 04:44:30;;;;;;;1.45;1.35;;;6.50;99.90;;;;;;4443810;32;20078;-66
2023/04/08 04:46:55;;;;;;;6.15;2.42;;;6.50;99.90;;;;;;4426417;32;20086;-65
2023/04/08 04:49:21;;;;;;;2.10;1.73;;;6.60;99.90;;;;;;4445993;32;20655;-64
2023/04/08 04:51:46;;;;;;;3.47;1.58;;;6.60;99.90;;;;;;4445941;32;20081;-67
2023/04/08 04:54:12;;;;;;;1.17;0.77;;;6.60;99.90;;;;;;4441660;32;20097;-65
2023/04/08 04:56:38;;;;;;;1.15;1.08;;;6.50;99.90;;;;;;4441707;32;20198;-66
2023/04/08 04:59:04;;;;;;;0.68;0.62;;;6.60;99.90;;;;;;4445462;32;20061;-66
2023/04/08 05:01:29;;;;;;;1.50;1.30;;;6.60;99.90;;;;;;4441398;32;20084;-65
2023/04/08 05:03:55;;;;;;;1.42;1.33;;;6.50;99.90;;;;;;4442670;32;20073;-66
2023/04/08 05:06:23;;;;;;;5.00;1.73;;;6.50;99.90;;;;;;4441793;32;20152;-66
2023/04/08 05:08:50;;;;;;;7.22;2.58;;;6.50;99.90;;;;;;4444897;32;20089;-64
2023/04/08 05:11:17;;;;;;;1.02;0.90;;;6.50;99.90;;;;;;4439687;32;20092;-66
2023/04/08 05:13:43;;;;;;;16.02;2.15;;;6.50;99.90;;;;;;4429044;32;20126;-66
2023/04/08 05:16:08;;;;;;;3.17;1.67;;;6.50;99.90;;;;;;4444438;32;20073;-66
2023/04/08 05:18:34;;;;;;;1.48;1.37;;;6.60;99.90;;;;;;4444225;32;20427;-64
2023/04/08 05:20:59;;;;;;;3.95;1.17;;;6.60;99.90;;;;;;4445072;32;20082;-66
2023/04/08 05:23:25;;;;;;;2.62;1.17;;;6.70;99.90;;;;;;4442653;32;20073;-67
2023/04/08 05:25:50;;;;;;;5.10;2.20;;;6.70;99.90;;;;;;4441415;32;20064;-67
2023/04/08 05:28:16;;;;;;;7.37;1.92;;;6.70;99.90;;;;;;4442991;32;20497;-66
2023/04/08 05:30:41;;;;;;;1.67;1.35;;;6.60;99.90;;;;;;4447976;32;20297;-65
2023/04/08 05:33:06;;;;;;;1.80;0.82;;;6.60;99.90;;;;;;4444197;32;20069;-64
2023/04/08 05:35:32;;;;;;;0.77;0.77;;;6.60;99.90;;;;;;4440126;32;20184;-65
2023/04/08 05:37:57;;;;;;;3.90;2.55;;;6.70;99.90;;;;;;4441572;32;20080;-66
2023/04/08 05:40:23;;;;;;;1.40;1.23;;;6.70;99.90;;;;;;4441970;32;20061;-66
2023/04/08 05:42:48;;;;;;;0.50;0.50;;;6.80;99.90;;;;;;4440339;32;20057;-66
2023/04/08 05:45:15;;;;;;;3.67;1.42;;;6.80;99.90;;;;;;4440301;32;20434;-66
2023/04/08 05:47:40;;;;;;;12.30;1.90;;;6.70;99.90;;;;;;4441677;32;20054;-66
2023/04/08 05:50:06;;;;;;;2.72;2.15;;;6.60;99.90;;;;;;4444060;32;20088;-65
2023/04/08 05:52:32;;;;;;;1.85;1.45;;;6.70;99.90;;;;;;4440639;32;20152;-65
2023/04/08 05:54:57;;;;;;;4.50;1.42;;;6.70;99.90;;;;;;4442976;32;20150;-66
2023/04/08 05:57:23;;;;;;;1.58;0.98;;;6.80;99.90;;;;;;4442585;32;20556;-65
2023/04/08 05:59:48;;;;;;;3.90;1.48;;;6.70;99.90;;;;;;4442422;32;20070;-67
2023/04/08 06:02:14;;;;;;;5.00;2.15;;;6.80;99.90;;;;;;4443053;32;20077;-64
2023/04/08 06:04:39;;;;;;;3.10;1.27;;;6.80;99.90;;;;;;4444800;32;20499;-66
2023/04/08 06:07:07;;;;;;;5.55;2.12;;;6.90;99.90;;;;;;4440436;32;20093;-66
2023/04/08 06:09:35;;;;;;;3.92;1.67;;;6.90;99.90;;;;;;4440415;32;20089;-66
2023/04/08 06:12:00;;;;;;;0.75;0.75;;;7.00;99.90;;;;;;4442511;32;20109;-66
2023/04/08 06:14:26;;;;;;;2.22;1.65;;;7.00;99.90;;;;;;4438488;32;20084;-66
2023/04/08 06:16:53;;;;;;;1.48;1.00;;;7.00;99.90;;;;;;4440386;32;20132;-66
2023/04/08 06:19:19;;;;;;;1.05;0.95;;;7.00;99.90;;;;;;4442271;32;20073;-65
2023/04/08 06:21:44;;;;;;;5.53;1.30;;;7.10;99.90;;;;;;4440736;32;20082;-66
2023/04/08 06:24:10;;;;;;;1.70;1.50;;;7.00;99.90;;;;;;4440496;32;20146;-66
2023/04/08 06:26:35;;;;;;;3.00;1.20;;;7.00;99.90;;;;;;4440420;32;20049;-65
2023/04/08 06:29:01;;;;;;;1.92;1.27;;;7.10;99.90;;;;;;4443839;32;20081;-67
2023/04/08 06:31:27;;;;;;;2.80;1.60;;;7.10;99.90;;;;;;4443349;32;20077;-67
2023/04/08 06:33:52;;;;;;;1.92;1.20;;;7.20;99.90;;;;;;4443968;32;20113;-67
2023/04/08 06:36:18;;;;;;;1.20;1.10;;;7.20;99.90;;;;;;4427976;32;20746;-66
2023/04/08 06:38:43;;;;;;;0.80;0.80;;;7.20;99.90;;;;;;4440497;32;20386;-66
2023/04/08 06:41:09;;;;;;;3.75;2.28;;;7.30;99.90;;;;;;4440991;32;20073;-64
2023/04/08 06:43:36;;;;;;;2.25;1.50;;;7.30;99.90;;;;;;4435774;32;20125;-66
2023/04/08 06:46:01;;;;;;;1.10;1.00;;;7.30;99.90;;;;;;4420902;32;20105;-62
2023/04/08 06:48:29;;;;;;;4.75;1.35;;;7.30;99.90;;;;;;4427344;32;20817;-65
2023/04/08 06:50:55;;;;;;;1.50;1.40;;;7.40;99.90;;;;;;4431993;32;20485;-65
2023/04/08 06:53:23;;;;;;;7.97;1.12;;;7.40;99.90;;;;;;4425329;32;20064;-66
2023/04/08 06:55:48;;;;;;;0.80;0.80;;;7.40;99.90;;;;;;4419595;32;20468;-66
2023/04/08 06:58:14;;;;;;;2.05;1.45;;;7.40;99.90;;;;;;4428930;32;20065;-66
2023/04/08 07:00:41;;;;;;;1.83;1.35;;;7.40;99.90;;;;;;4428747;32;20057;-66
2023/04/08 07:03:06;;;;;;;6.05;2.70;;;7.50;99.90;;;;;;4427085;32;20138;-65
2023/04/08 07:05:34;;;;;;;4.03;1.85;;;7.60;99.90;;;;;;4429349;32;20100;-65
2023/04/08 07:07:59;;;;;;;2.67;2.12;;;7.60;99.90;;;;;;4424432;32;20057;-64
2023/04/08 07:10:25;;;;;;;1.58;1.48;;;7.60;99.90;;;;;;4426256;32;20072;-65
2023/04/08 07:12:51;;;;;;;9.90;1.73;;;7.70;99.90;;;;;;4429876;32;20536;-64
2023/04/08 07:15:16;;;;;;;1.05;1.05;;;7.70;99.90;;;;;;4423755;32;20456;-67
2023/04/08 07:17:42;;;;;;;5.00;1.45;;;7.80;99.90;;;;;;4430953;32;20069;-67
2023/04/08 07:20:08;;;;;;;3.00;1.58;;;7.90;99.90;;;;;;4429019;32;20073;-65
2023/04/08 07:22:34;;;;;;;1.98;1.12;;;8.10;99.90;;;;;;4429229;32;20081;-65
2023/04/08 07:24:59;;;;;;;7.60;2.47;;;8.10;99.90;;;;;;4425280;32;20061;-64
2023/04/08 07:27:26;;;;;;;14.48;1.62;;;8.10;99.90;;;;;;4425383;32;20065;-64
2023/04/08 07:29:53;;;;;;;6.00;2.03;;;8.10;99.90;;;;;;4430345;32;20067;-66
2023/04/08 07:32:18;;;;;;;5.53;1.92;;;8.20;99.90;;;;;;4424765;32;20524;-66
2023/04/08 07:34:44;;;;;;;1.85;1.17;;;8.20;99.90;;;;;;4423796;32;20094;-64
2023/04/08 07:37:09;;;;;;;14.23;1.70;;;8.30;99.90;;;;;;4421420;32;20074;-67
2023/04/08 07:39:35;;;;;;;2.12;1.92;;;8.40;99.90;;;;;;4425565;32;20926;-67
2023/04/08 07:42:00;;;;;;;0.70;0.70;;;8.40;99.90;;;;;;4422605;32;20139;-64
2023/04/08 07:44:26;;;;;;;5.55;1.48;;;8.30;99.90;;;;;;4436043;32;20393;-64
2023/04/08 07:46:51;;;;;;;14.25;3.58;;;8.30;99.90;;;;;;4426635;32;20085;-65
2023/04/08 07:49:17;;;;;;;8.15;1.70;;;8.30;99.90;;;;;;4441026;32;20123;-65
2023/04/08 07:51:42;;;;;;;7.32;2.58;;;8.30;99.90;;;;;;4442880;32;20093;-66
2023/04/08 07:54:10;;;;;;;4.78;2.42;;;8.30;99.90;;;;;;4441963;32;20084;-66
2023/04/08 07:56:39;;;;;;;10.45;2.92;;;8.30;99.90;;;;;;4439531;32;20081;-66
2023/04/08 07:59:05;;;;;;;1.60;1.50;;;8.20;99.90;;;;;;4446474;32;20125;-66
2023/04/08 08:01:33;;;;;;;4.87;1.77;;;8.20;99.90;;;;;;4443706;32;20064;-64
2023/04/08 08:03:59;;;;;;;3.30;1.33;;;8.30;99.90;;;;;;4443088;32;20061;-66
2023/04/08 08:06:25;;;;;;;6.03;1.90;;;8.30;99.90;;;;;;4428076;32;20565;-66
2023/04/08 08:08:50;;;;;;;3.80;1.12;;;8.30;99.90;;;;;;4444508;32;20093;-66
2023/04/08 08:11:16;;;;;;;2.22;1.23;;;8.30;99.90;;;;;;4441402;32;20061;-66
2023/04/08 08:13:41;;;;;;;1.23;1.15;;;8.30;99.90;;;;;;4442329;32;20081;-66
2023/04/08 08:16:10;;;;;;;3.65;1.40;;;8.30;99.90;;;;;;4443343;32;20092;-66
2023/04/08 08:18:36;;;;;;;3.87;1.42;;;8.40;99.90;;;;;;4441055;32;20057;-67
2023/04/08 08:21:02;;;;;;;4.53;2.03;;;8.40;99.90;;;;;;4443281;32;20430;-66
2023/04/08 08:23:27;;;;;;;4.43;1.50;;;8.50;99.90;;;;;;4444778;32;20061;-65
2023/04/08 08:26:01;;;;;;;6.68;2.33;;;8.60;99.90;;;;;;4441902;32;20532;-66
2023/04/08 08:28:27;;;;;;;1.33;1.20;;;8.60;99.90;;;;;;4427349;32;20073;-65
2023/04/08 08:30:52;;;;;;;4.85;2.60;;;8.70;99.90;;;;;;4446227;32;20402;-65
2023/04/08 08:33:18;;;;;;;3.90;1.27;;;8.80;99.90;;;;;;4441204;32;20476;-65
2023/04/08 08:35:44;;;;;;;2.25;1.60;;;8.70;99.90;;;;;;4441514;32;20093;-65
2023/04/08 08:38:09;;;;;;;1.15;1.15;;;8.70;99.90;;;;;;4442019;32;20190;-66
2023/04/08 08:40:35;;;;;;;2.47;1.30;;;8.70;99.90;;;;;;4426402;32;20125;-65
2023/04/08 08:43:01;;;;;;;6.90;2.30;;;8.60;99.90;;;;;;4434109;32;20074;-66
2023/04/08 08:45:26;;;;;;;11.60;1.77;;;8.70;99.90;;;;;;4439590;32;20084;-66
2023/04/08 08:47:52;;;;;;;3.70;1.83;;;8.80;99.90;;;;;;4427619;32;20126;-66
2023/04/08 08:50:18;;;;;;;2.58;1.67;;;8.90;99.90;;;;;;4447087;32;20413;-66
2023/04/08 08:52:51;;;;;;;4.55;1.25;;;8.90;99.90;;;;;;4443687;32;20135;-66
2023/04/08 08:55:18;;;;;;;5.82;2.25;;;9.00;99.90;;;;;;4441445;32;20085;-66
2023/04/08 08:57:44;;;;;;;2.75;1.65;;;8.90;99.90;;;;;;4429708;32;20073;-65
2023/04/08 09:00:10;;;;;;;1.30;1.20;;;9.00;99.90;;;;;;4444132;32;20115;-65
2023/04/08 09:02:35;;;;;;;1.12;1.10;;;9.00;99.90;;;;;;4446079;32;20115;-65
2023/04/08 09:05:03;;;;;;;9.20;2.25;;;9.00;99.90;;;;;;4447986;32;20445;-66
2023/04/08 09:07:30;;;;;;;1.90;1.67;;;9.00;99.90;;;;;;4440103;32;20431;-65
2023/04/08 09:09:57;;;;;;;2.45;1.45;;;9.10;99.90;;;;;;4441000;32;20064;-65
2023/04/08 09:12:24;;;;;;;4.85;1.67;;;9.10;99.90;;;;;;4441563;32;20060;-66
2023/04/08 09:14:50;;;;;;;1.25;1.15;;;9.20;99.90;;;;;;4423740;32;20064;-66
2023/04/08 09:17:30;;;;;;;4.95;2.12;;;9.20;99.90;;;;;;4422450;32;20516;-66
2023/04/08 09:20:08;;;;;;;2.83;1.73;;;9.30;99.90;;;;;;4417275;32;20519;-66
2023/04/08 09:22:34;;;;;;;3.33;1.27;;;9.40;99.90;;;;;;4428614;32;20053;-66
2023/04/08 09:25:00;;;;;;;1.23;1.15;;;9.40;99.90;;;;;;4445652;32;20582;-66
2023/04/08 09:27:34;;;;;;;7.97;1.95;;;9.40;99.90;;;;;;4442367;32;20082;-66
2023/04/08 09:30:15;;;;;;;2.95;2.05;;;9.40;99.90;;;;;;4441942;32;20127;-65
2023/04/08 09:32:49;;;;;;;;;;;9.40;99.90;;;;;;4443336;32;20488;-67
2023/04/08 09:35:16;;;;;;;1.30;1.20;;;9.30;99.90;;;;;;4424376;32;19951;-66
2023/04/08 09:37:42;;;;;;;2.65;1.62;;;9.20;99.90;;;;;;4446063;32;20072;-66
2023/04/08 09:40:08;;;;;;;4.07;1.67;;;9.20;99.90;;;;;;4444191;32;20130;-66
2023/04/08 09:42:37;;;;;;;2.97;1.35;;;9.20;99.90;;;;;;4441394;32;20064;-66
2023/04/08 09:45:04;;;;;;;2.53;1.60;;;9.30;99.90;;;;;;4438032;32;20105;-64
2023/04/08 09:47:36;;;;;;;14.38;1.77;;;9.50;99.90;;;;;;4442387;32;20579;-66
2023/04/08 09:50:04;;;;;;;3.03;2.15;;;9.60;99.90;;;;;;4448659;32;20105;-66
2023/04/08 09:52:35;;;;;;;2.70;1.30;;;9.70;99.90;;;;;;4445875;32;20131;-65
2023/04/08 09:55:04;;;;;;;1.83;1.30;;;9.70;99.90;;;;;;4424245;32;20061;-65
2023/04/08 09:57:40;;;;;;;1.20;0.88;;;9.80;99.90;;;;;;4424409;32;20061;-66
2023/04/08 10:00:11;;;;;;;4.32;1.37;;;9.80;99.90;;;;;;4427883;32;20478;-66
2023/04/08 10:03:01;;;;;;;1.23;1.10;;;9.80;99.90;;;;;;4428158;32;20093;-66
2023/04/08 10:05:28;;;;;;;1.33;1.10;;;9.70;99.90;;;;;;4426300;32;20085;-64
2023/04/08 10:07:56;;;;;;;3.03;1.50;;;9.70;99.90;;;;;;4442497;32;20512;-67
2023/04/08 10:10:22;;;;;;;3.17;1.40;;;9.70;99.90;;;;;;4427720;32;20119;-67
2023/04/08 10:12:48;;;;;;;1.70;1.15;;;9.70;99.90;;;;;;4440487;32;20080;-66
2023/04/08 10:15:24;;;;;;;5.87;1.35;;;9.80;99.90;;;;;;4439546;32;20061;-65
2023/04/08 10:17:51;;;;;;;5.57;1.27;;;9.90;99.90;;;;;;4442968;32;20061;-66
2023/04/08 10:20:37;;;;;;;3.20;1.15;;;10.00;99.90;;;;;;4414176;32;20073;-66
2023/04/08 10:23:06;;;;;;;3.10;0.90;;;10.20;99.90;;;;;;4431567;32;20097;-66
2023/04/08 10:25:37;;;;;;;1.45;0.98;;;10.40;99.90;;;;;;4420449;32;20080;-66
2023/04/08 10:28:17;;;;;;;3.22;1.30;;;10.50;99.90;;;;;;4425804;32;20334;-66
2023/04/08 10:30:54;;;;;;;3.37;1.33;;;10.50;99.90;;;;;;4441041;32;20623;-67
2023/04/08 10:33:24;;;;;;;0.45;0.45;;;10.60;99.90;;;;;;4424613;32;20073;-67
2023/04/08 10:35:53;;;;;;;4.12;1.52;;;10.80;99.90;;;;;;4445561;32;20592;-67
2023/04/08 10:38:20;;;;;;;0.82;0.82;;;10.60;99.90;;;;;;4442446;32;20064;-66
2023/04/08 10:40:47;;;;;;;3.20;1.98;;;10.50;99.90;;;;;;4426502;32;20053;-67
2023/04/08 10:43:14;;;;;;;5.35;1.40;;;10.50;99.90;;;;;;4442095;32;20100;-64
2023/04/08 10:45:41;;;;;;;1.65;1.37;;;10.50;99.90;;;;;;4422730;32;20464;-66
2023/04/08 10:48:16;;;;;;;6.62;1.55;;;10.50;99.90;;;;;;4442569;32;20076;-64
2023/04/08 10:50:59;;;;;;;1.67;0.82;;;10.50;99.90;;;;;;4444266;32;20060;-66
2023/04/08 10:53:29;;;;;;;0.80;0.80;;;10.60;99.90;;;;;;4427728;32;20130;-66
2023/04/08 10:56:07;;;;;;;2.60;1.75;;;10.70;99.90;;;;;;4417257;32;20081;-63
2023/04/08 10:58:34;;;;;;;2.75;1.55;;;10.70;99.90;;;;;;4425789;32;20077;-65
2023/04/08 11:01:07;;;;;;;0.80;0.80;;;10.60;99.90;;;;;;4443401;32;20056;-66
2023/04/08 11:03:33;;;;;;;10.55;1.92;;;10.60;99.90;;;;;;4445337;32;20125;-65
2023/04/08 11:06:00;;;;;;;1.62;1.52;;;10.60;99.90;;;;;;4441416;32;20069;-66
2023/04/08 11:08:31;;;;;;;1.67;1.48;;;10.50;99.90;;;;;;4425776;32;20093;-65
2023/04/08 11:10:57;;;;;;;2.30;1.15;;;10.60;99.90;;;;;;4441328;32;20082;-66
2023/04/08 11:13:23;;;;;;;2.72;1.15;;;10.60;99.90;;;;;;4439400;32;20100;-66
2023/04/08 11:15:49;;;;;;;2.90;1.35;;;10.60;99.90;;;;;;4438844;32;20552;-66
2023/04/08 11:18:15;;;;;;;2.03;0.85;;;10.50;99.90;;;;;;4442535;32;20121;-66
2023/04/08 11:20:43;;;;;;;4.68;1.52;;;10.60;99.90;;;;;;4446180;32;20130;-66
2023/04/08 11:23:16;;;;;;;2.25;0.70;;;10.60;99.90;;;;;;4413640;32;20111;-66
2023/04/08 11:25:44;;;;;;;3.42;1.65;;;10.60;99.90;;;;;;4442323;32;20089;-66
2023/04/08 11:28:10;;;;;;;3.37;1.30;;;10.60;99.90;;;;;;4427863;32;20104;-65
2023/04/08 11:30:38;;;;;;;4.40;0.88;;;10.60;99.90;;;;;;4444214;32;20487;-66
2023/04/08 11:33:03;;;;;;;7.30;1.35;;;10.50;99.90;;;;;;4441178;32;20123;-65
2023/04/08 11:35:30;;;;;;;2.35;1.45;;;10.50;99.90;;;;;;4444794;32;20089;-66
2023/04/08 11:37:56;;;;;;;2.78;1.35;;;10.60;99.90;;;;;;4416787;32;20187;-67
2023/04/08 11:40:23;;;;;;;1.75;0.90;;;10.80;99.90;;;;;;4442869;32;20065;-66
2023/04/08 11:42:49;;;;;;;14.02;1.23;;;11.00;99.90;;;;;;4443782;32;20468;-66
2023/04/08 11:45:16;;;;;;;1.70;1.05;;;11.10;99.90;;;;;;4437904;32;111726;-66
2023/04/08 11:47:43;;;;;;;3.12;0.82;;;11.10;99.90;;;;;;4443489;32;20073;-65
2023/04/08 11:50:09;;;;;;;1.75;0.70;;;11.10;99.90;;;;;;4425599;32;20106;-65
2023/04/08 11:52:52;;;;;;;1.30;1.20;;;11.00;99.90;;;;;;4426542;32;20060;-66
2023/04/08 11:55:27;;;;;;;1.12;0.75;;;11.00;99.90;;;;;;4438957;32;20150;-66
2023/04/08 11:57:54;;;;;;;0.80;0.80;;;11.00;99.90;;;;;;4441934;32;20127;-65
2023/04/08 12:00:21;;;;;;;0.80;0.80;;;10.90;99.90;;;;;;4427957;32;20527;-66
2023/04/08 12:02:47;;;;;;;4.62;1.30;;;10.90;99.90;;;;;;4426897;32;20586;-66
2023/04/08 12:05:13;;;;;;;3.62;1.17;;;10.90;99.90;;;;;;4444587;32;20147;-67
2023/04/08 12:07:39;;;;;;;0.75;0.68;;;10.90;99.90;;;;;;4438310;32;20073;-66
2023/04/08 12:10:05;;;;;;;3.72;1.33;;;11.00;99.90;;;;;;4436063;32;20098;-66
2023/04/08 12:12:31;;;;;;;0.93;0.85;;;11.10;99.90;;;;;;4438355;32;20060;-66
2023/04/08 12:14:56;;;;;;;0.75;0.75;;;11.20;99.90;;;;;;4435815;32;20132;-65
2023/04/08 12:17:22;;;;;;;1.45;0.85;;;11.40;99.90;;;;;;4438548;32;20395;-66
2023/04/08 12:19:47;;;;;;;1.05;0.70;;;11.70;99.90;;;;;;4440249;32;20073;-66
2023/04/08 12:22:13;;;;;;;2.35;1.48;;;12.00;99.90;;;;;;4424669;32;20068;-66
2023/04/08 12:24:38;;;;;;;0.90;0.90;;;12.10;99.90;;;;;;4442035;32;20646;-67
2023/04/08 12:27:04;;;;;;;0.70;0.70;;;12.40;99.90;;;;;;4439390;32;20068;-65
2023/04/08 12:29:29;;;;;;;0.68;0.68;;;12.50;99.90;;;;;;4440630;32;20077;-66
2023/04/08 12:31:55;;;;;;;6.18;0.80;;;12.50;99.90;;;;;;4438686;32;20469;-64
2023/04/08 12:34:21;;;;;;;0.85;0.70;;;12.50;99.90;;;;;;4440071;32;20065;-66
2023/04/08 12:36:48;;;;;;;0.55;0.55;;;13.10;99.90;;;;;;4446073;32;20073;-66
2023/04/08 12:39:13;;;;;;;0.43;0.43;;;14.10;99.90;;;;;;4439665;32;20072;-66
2023/04/08 12:41:39;;;;;;;1.37;0.70;;;15.20;99.90;;;;;;4441876;32;20547;-68
2023/04/08 12:44:04;;;;;;;0.85;0.85;;;16.10;99.90;;;;;;4439443;32;20080;-67
2023/04/08 12:46:30;;;;;;;4.78;1.80;;;16.70;99.90;;;;;;4440597;32;20073;-68
2023/04/08 12:48:55;;;;;;;1.52;0.68;;;17.30;99.90;;;;;;4443968;32;20074;-66
2023/04/08 12:51:21;;;;;;;2.62;0.98;;;17.20;99.90;;;;;;4445201;32;20061;-67
2023/04/08 12:53:46;;;;;;;3.50;0.90;;;16.50;99.90;;;;;;4440929;32;20084;-66